createdAt,value
2019-04-23T00:04:01.082Z,14.50
2019-04-23T00:06:57.832Z,14.50
2019-04-23T00:09:26.293Z,14.40
2019-04-23T00:12:11.870Z,14.40
2019-04-23T00:14:47.957Z,14.40
2019-04-23T00:17:21.375Z,14.40
2019-04-23T00:20:14.395Z,14.40
2019-04-23T00:26:08.059Z,14.30
2019-04-23T00:28:50.435Z,14.30
2019-04-23T00:31:44.633Z,14.40
2019-04-23T00:34:01.202Z,14.50
2019-04-23T00:36:55.360Z,14.50
2019-04-23T00:39:40.743Z,14.50
2019-04-23T00:42:36.579Z,14.40
2019-04-23T00:45:07.194Z,14.30
2019-04-23T00:47:49.558Z,14.30
2019-04-23T00:53:04.245Z,14.40
2019-04-23T00:58:22.142Z,14.20
2019-04-23T01:04:02.869Z,14.10
2019-04-23T01:06:30.314Z,14.10
2019-04-23T01:09:34.655Z,14.20
2019-04-23T01:12:09.264Z,14.10
2019-04-23T01:14:44.423Z,14.10
2019-04-23T01:17:39.793Z,14.10
2019-04-23T01:20:37.335Z,14.00
2019-04-23T01:23:09.521Z,14.00
2019-04-23T01:25:57.715Z,14.10
2019-04-23T01:28:49.648Z,14.10
2019-04-23T01:31:43.027Z,14.10
2019-04-23T01:34:28.022Z,14.00
2019-04-23T01:37:15.992Z,14.00
2019-04-23T01:39:50.415Z,14.00
2019-04-23T01:42:25.497Z,14.00
2019-04-23T01:45:05.334Z,13.90
2019-04-23T01:47:46.050Z,13.90
2019-04-23T01:50:40.370Z,13.80
2019-04-23T01:53:16.302Z,13.80
2019-04-23T01:58:41.927Z,13.80
2019-04-23T02:01:16.053Z,13.90
2019-04-23T02:03:56.181Z,13.90
2019-04-23T02:06:31.592Z,13.90
2019-04-23T02:09:24.908Z,13.90
2019-04-23T02:11:53.595Z,13.90
2019-04-23T02:14:36.473Z,13.90
2019-04-23T02:17:17.131Z,13.80
2019-04-23T02:20:13.873Z,13.80
2019-04-23T02:22:59.997Z,13.80
2019-04-23T02:25:44.525Z,13.70
2019-04-23T02:28:09.126Z,13.70
2019-04-23T02:31:11.654Z,13.70
2019-04-23T02:35:58.365Z,13.70
2019-04-23T02:38:40.146Z,13.80
2019-04-23T02:43:26.141Z,13.90
2019-04-23T02:46:05.438Z,13.90
2019-04-23T02:49:05.179Z,13.70
2019-04-23T02:51:59.252Z,13.70
2019-04-23T02:54:37.827Z,13.70
2019-04-23T02:57:13.953Z,13.70
2019-04-23T03:00:12.114Z,13.70
2019-04-23T03:02:48.133Z,13.80
2019-04-23T03:05:24.928Z,13.80
2019-04-23T03:07:54.020Z,13.80
2019-04-23T03:10:21.182Z,13.80
2019-04-23T03:19:09.710Z,13.90
2019-04-23T03:22:08.527Z,13.90
2019-04-23T03:25:00.515Z,13.80
2019-04-23T03:30:22.328Z,13.80
2019-04-23T03:34:26.200Z,13.80
2019-04-23T03:38:07.988Z,13.70
2019-04-23T03:41:06.945Z,13.60
2019-04-23T03:48:41.764Z,13.80
2019-04-23T03:51:03.225Z,13.70
2019-04-23T03:53:58.543Z,13.70
2019-04-23T03:56:34.310Z,13.70
2019-04-23T04:01:34.415Z,13.80
2019-04-23T04:04:31.216Z,13.70
2019-04-23T04:11:55.059Z,13.50
2019-04-23T04:14:54.482Z,13.60
2019-04-23T04:20:18.709Z,13.60
2019-04-23T04:22:59.972Z,13.70
2019-04-23T04:28:03.575Z,13.50
2019-04-23T04:36:18.233Z,13.50
2019-04-23T04:41:24.002Z,13.50
2019-04-23T04:57:00.088Z,13.50
2019-04-23T04:59:35.431Z,13.50
2019-04-23T05:07:36.132Z,13.60
2019-04-23T05:15:34.457Z,13.60
2019-04-23T05:18:24.050Z,13.70
2019-04-23T05:20:58.644Z,13.80
2019-04-23T05:23:42.856Z,13.80
2019-04-23T05:26:22.398Z,13.90
2019-04-23T05:29:00.097Z,13.90
2019-04-23T05:31:42.274Z,13.90
2019-04-23T05:34:19.721Z,13.80
2019-04-23T05:36:58.218Z,13.90
2019-04-23T05:39:30.926Z,13.80
2019-04-23T05:42:10.975Z,13.90
2019-04-23T05:44:41.574Z,13.90
2019-04-23T05:47:19.123Z,14.00
2019-04-23T05:49:47.116Z,14.00
2019-04-23T05:52:16.039Z,14.20
2019-04-23T05:54:58.899Z,14.20
2019-04-23T05:57:20.028Z,14.00
2019-04-23T05:59:57.167Z,13.30
2019-04-23T06:02:35.611Z,12.60
2019-04-23T06:05:04.179Z,12.30
2019-04-23T06:07:47.433Z,12.20
2019-04-23T06:10:23.283Z,12.20
2019-04-23T06:12:52.275Z,12.20
2019-04-23T06:15:30.339Z,12.30
2019-04-23T06:18:12.033Z,12.40
2019-04-23T06:20:43.659Z,12.50
2019-04-23T06:23:30.354Z,12.70
2019-04-23T06:26:21.766Z,12.80
2019-04-23T06:28:27.568Z,12.90
2019-04-23T06:31:03.018Z,13.00
2019-04-23T06:33:32.294Z,13.10
2019-04-23T06:36:18.688Z,13.20
2019-04-23T06:39:04.339Z,13.30
2019-04-23T06:41:23.353Z,13.50
2019-04-23T06:44:05.845Z,13.50
2019-04-23T06:46:39.452Z,13.60
2019-04-23T06:49:10.918Z,13.60
2019-04-23T06:51:46.418Z,13.70
2019-04-23T06:54:19.137Z,13.80
2019-04-23T06:56:54.383Z,13.90
2019-04-23T06:59:17.081Z,13.90
2019-04-23T07:01:59.293Z,14.00
2019-04-23T07:04:37.966Z,14.10
2019-04-23T07:07:23.882Z,14.20
2019-04-23T07:09:35.220Z,14.30
2019-04-23T07:12:08.689Z,14.30
2019-04-23T07:14:51.971Z,14.30
2019-04-23T07:17:13.319Z,14.40
2019-04-23T07:19:46.755Z,14.60
2019-04-23T07:25:00.318Z,14.70
2019-04-23T07:27:36.062Z,14.80
2019-04-23T07:30:08.739Z,14.90
2019-04-23T07:32:44.730Z,15.00
2019-04-23T07:35:24.639Z,15.20
2019-04-23T07:40:55.880Z,15.20
2019-04-23T07:43:23.498Z,15.10
2019-04-23T07:46:15.299Z,15.20
2019-04-23T07:48:32.059Z,15.10
2019-04-23T07:51:14.779Z,15.30
2019-04-23T07:53:47.799Z,15.40
2019-04-23T07:56:13.144Z,15.60
2019-04-23T07:58:58.366Z,15.70
2019-04-23T08:01:32.223Z,15.80
2019-04-23T08:06:30.021Z,16.00
2019-04-23T08:09:04.031Z,16.10
2019-04-23T08:14:13.475Z,16.20
2019-04-23T08:19:05.669Z,16.40
2019-04-23T08:21:48.698Z,16.60
2019-04-23T08:24:38.570Z,16.60
2019-04-23T08:27:27.934Z,16.70
2019-04-23T08:30:00.489Z,16.70
2019-04-23T08:32:29.242Z,16.80
2019-04-23T08:35:10.582Z,16.80
2019-04-23T08:37:54.337Z,16.80
2019-04-23T08:40:18.524Z,16.80
2019-04-23T08:43:10.963Z,16.80
2019-04-23T08:45:40.076Z,16.70
2019-04-23T08:58:35.289Z,16.70
2019-04-23T09:01:00.504Z,16.70
2019-04-23T09:08:32.715Z,17.00
2019-04-23T09:11:16.669Z,17.10
2019-04-23T09:16:15.713Z,17.20
2019-04-23T09:19:02.783Z,17.30
2019-04-23T09:21:14.049Z,17.30
2019-04-23T09:23:51.725Z,17.40
2019-04-23T09:26:11.036Z,17.40
2019-04-23T09:32:07.750Z,17.50
2019-04-23T09:34:54.142Z,17.50
2019-04-23T09:37:37.125Z,17.50
2019-04-23T09:40:37.104Z,17.60
2019-04-23T09:43:22.946Z,17.70
2019-04-23T09:46:18.660Z,17.90
2019-04-23T09:51:25.518Z,18.20
2019-04-23T09:53:56.297Z,18.30
2019-04-23T09:56:32.146Z,18.50
2019-04-23T09:59:10.909Z,18.50
2019-04-23T10:01:41.066Z,18.60
2019-04-23T10:03:57.672Z,18.70
2019-04-23T10:06:22.629Z,18.80
2019-04-23T10:08:54.040Z,18.80
2019-04-23T10:24:59.452Z,19.90
2019-04-23T10:54:59.340Z,20.00
2019-04-23T10:57:25.038Z,20.20
2019-04-23T10:59:53.923Z,20.30
2019-04-23T11:05:11.745Z,20.40
2019-04-23T11:10:23.921Z,20.40
2019-04-23T11:12:50.709Z,20.40
2019-04-23T11:15:50.289Z,20.20
2019-04-23T11:17:52.261Z,20.10
2019-04-23T11:20:35.309Z,20.10
2019-04-23T11:23:04.950Z,20.00
2019-04-23T11:25:37.925Z,19.90
2019-04-23T11:28:13.329Z,19.80
2019-04-23T11:30:41.169Z,19.70
2019-04-23T11:36:06.252Z,19.50
2019-04-23T11:40:49.102Z,19.40
2019-04-23T11:43:29.029Z,19.40
2019-04-23T11:53:34.118Z,19.40
2019-04-23T11:56:02.622Z,19.70
2019-04-23T11:58:39.654Z,19.90
2019-04-23T12:01:49.901Z,20.00
2019-04-23T12:04:30.012Z,20.10
2019-04-23T12:10:20.014Z,20.10
2019-04-23T12:18:03.316Z,20.50
2019-04-23T12:20:28.995Z,20.60
2019-04-23T12:23:01.174Z,20.70
2019-04-23T12:25:37.840Z,20.70
2019-04-23T12:27:39.128Z,20.80
2019-04-23T12:30:27.580Z,20.90
2019-04-23T12:35:24.036Z,20.90
2019-04-23T12:38:00.935Z,21.10
2019-04-23T12:40:38.269Z,21.10
2019-04-23T12:43:12.718Z,21.00
2019-04-23T12:45:46.808Z,21.10
2019-04-23T12:48:17.373Z,21.20
2019-04-23T12:50:51.658Z,21.10
2019-04-23T12:53:20.413Z,21.20
2019-04-23T12:58:20.396Z,21.10
2019-04-23T13:00:38.940Z,21.30
2019-04-23T13:03:25.224Z,21.30
2019-04-23T13:05:42.209Z,21.30
2019-04-23T13:10:49.741Z,21.40
2019-04-23T13:15:51.915Z,21.40
2019-04-23T13:18:31.545Z,21.50
2019-04-23T13:21:00.025Z,21.40
2019-04-23T13:23:51.101Z,21.30
2019-04-23T13:26:10.075Z,21.40
2019-04-23T13:28:40.123Z,21.30
2019-04-23T13:38:45.126Z,21.20
2019-04-23T13:41:23.438Z,21.20
2019-04-23T13:43:42.705Z,21.20
2019-04-23T13:46:18.005Z,21.20
2019-04-23T13:48:42.300Z,21.30
2019-04-23T13:51:25.760Z,21.20
2019-04-23T13:54:07.493Z,21.30
2019-04-23T13:58:56.376Z,21.40
2019-04-23T14:04:24.731Z,21.60
2019-04-23T14:11:33.360Z,21.60
2019-04-23T14:14:16.696Z,21.60
2019-04-23T14:19:06.757Z,21.80
2019-04-23T14:21:47.193Z,22.00
2019-04-23T14:26:48.907Z,21.80
2019-04-23T14:29:31.783Z,21.70
2019-04-23T14:32:04.279Z,21.70
2019-04-23T14:34:31.280Z,21.70
2019-04-23T14:37:12.127Z,21.70
2019-04-23T14:39:34.010Z,21.80
2019-04-23T14:42:09.885Z,21.80
2019-04-23T14:44:38.170Z,21.80
2019-04-23T14:47:16.528Z,21.90
2019-04-23T14:55:25.281Z,21.90
2019-04-23T14:57:34.067Z,21.90
2019-04-23T14:59:59.960Z,21.90
2019-04-23T15:02:25.747Z,21.90
2019-04-23T15:04:54.382Z,22.00
2019-04-23T15:07:28.310Z,22.00
2019-04-23T15:10:13.366Z,22.10
2019-04-23T15:12:33.012Z,22.00
2019-04-23T15:15:06.232Z,22.10
2019-04-23T15:17:33.962Z,22.20
2019-04-23T15:20:11.903Z,22.30
2019-04-23T15:22:57.754Z,22.40
2019-04-23T15:30:03.759Z,22.30
2019-04-23T15:32:53.522Z,22.30
2019-04-23T15:35:47.824Z,22.30
2019-04-23T15:40:23.607Z,22.20
2019-04-23T15:42:58.281Z,22.20
2019-04-23T15:45:21.071Z,22.20
2019-04-23T15:47:56.525Z,22.20
2019-04-23T15:50:27.204Z,22.10
2019-04-23T15:52:58.250Z,22.10
2019-04-23T15:55:27.710Z,22.00
2019-04-23T15:58:09.226Z,21.90
2019-04-23T16:00:30.167Z,21.80
2019-04-23T16:02:38.329Z,21.60
2019-04-23T16:05:10.191Z,21.50
2019-04-23T16:07:54.767Z,21.50
2019-04-23T16:10:47.600Z,21.60
2019-04-23T16:13:12.711Z,21.60
2019-04-23T16:15:43.390Z,21.60
2019-04-23T16:18:30.045Z,21.60
2019-04-23T16:21:02.033Z,21.60
2019-04-23T16:23:33.785Z,21.70
2019-04-23T16:26:00.161Z,21.70
2019-04-23T16:28:53.420Z,21.90
2019-04-23T16:31:03.115Z,22.00
2019-04-23T16:33:38.569Z,22.00
2019-04-23T16:38:45.570Z,21.80
2019-04-23T16:41:17.810Z,21.90
2019-04-23T16:43:49.258Z,21.90
2019-04-23T16:46:21.495Z,21.90
2019-04-23T16:48:57.884Z,21.90
2019-04-23T16:51:25.195Z,21.80
2019-04-23T16:53:56.015Z,21.80
2019-04-23T16:56:42.796Z,21.70
2019-04-23T17:01:21.026Z,21.60
2019-04-23T17:04:05.266Z,21.40
2019-04-23T17:06:31.029Z,21.30
2019-04-23T17:14:08.113Z,21.30
2019-04-23T17:16:39.425Z,21.30
2019-04-23T17:19:11.435Z,21.30
2019-04-23T17:21:36.646Z,21.20
2019-04-23T17:24:20.599Z,21.10
2019-04-23T17:27:03.949Z,21.10
2019-04-23T17:29:18.614Z,21.10
2019-04-23T17:31:44.780Z,21.00
2019-04-23T17:34:25.937Z,21.00
2019-04-23T17:37:06.348Z,20.90
2019-04-23T17:39:52.698Z,20.90
2019-04-23T17:45:18.729Z,20.60
2019-04-23T17:47:47.581Z,20.50
2019-04-23T17:55:15.443Z,20.30
2019-04-23T18:00:25.687Z,20.30
2019-04-23T18:02:59.910Z,20.20
2019-04-23T18:05:37.382Z,20.20
2019-04-23T18:08:05.327Z,20.20
2019-04-23T18:10:34.038Z,20.20
2019-04-23T18:15:17.508Z,20.10
2019-04-23T18:18:02.197Z,20.20
2019-04-23T18:20:43.992Z,20.10
2019-04-23T18:25:51.651Z,20.00
2019-04-23T18:28:19.925Z,20.00
2019-04-23T18:34:26.552Z,19.90
2019-04-23T18:36:40.736Z,19.80
2019-04-23T18:39:12.347Z,19.80
2019-04-23T18:41:43.416Z,19.80
2019-04-23T18:44:36.452Z,19.70
2019-04-23T18:49:23.682Z,19.70
2019-04-23T18:51:55.110Z,19.70
2019-04-23T18:54:24.724Z,19.70
2019-04-23T18:57:06.569Z,19.60
2019-04-23T18:59:30.316Z,19.60
2019-04-23T19:02:17.338Z,19.60
2019-04-23T19:07:43.107Z,19.60
2019-04-23T19:10:32.077Z,19.60
2019-04-23T19:13:09.645Z,19.60
2019-04-23T19:15:39.711Z,19.60
2019-04-23T19:18:08.563Z,19.60
2019-04-23T19:20:58.682Z,19.50
2019-04-23T19:23:16.304Z,19.60
2019-04-23T19:25:50.098Z,19.50
2019-04-23T19:28:34.523Z,19.50
2019-04-23T19:31:11.752Z,19.40
2019-04-23T19:33:48.569Z,19.40
2019-04-23T19:38:33.021Z,19.50
2019-04-23T19:48:44.111Z,19.40
2019-04-23T19:51:09.546Z,19.50
2019-04-23T19:53:57.691Z,19.50
2019-04-23T19:58:44.962Z,19.30
2019-04-23T20:03:49.780Z,19.30
2019-04-23T20:06:32.755Z,19.20
2019-04-23T20:09:10.882Z,19.10
2019-04-23T20:11:32.720Z,19.00
2019-04-23T20:16:46.697Z,18.90
2019-04-23T20:18:57.714Z,18.80
2019-04-23T20:21:36.518Z,18.70
2019-04-23T20:26:29.078Z,18.50
2019-04-23T20:32:03.176Z,18.40
2019-04-23T20:32:07.113Z,18.60
2019-04-23T20:37:25.708Z,18.10
2019-04-23T20:39:50.594Z,17.90
2019-04-23T20:47:28.798Z,17.80
2019-04-23T20:49:48.028Z,17.60
2019-04-23T20:55:12.186Z,17.50
2019-04-23T21:00:14.300Z,17.30
2019-04-23T21:03:16.909Z,17.30
2019-04-23T21:15:40.133Z,17.10
2019-04-23T21:18:15.721Z,17.00
2019-04-23T21:20:43.391Z,16.90
2019-04-23T21:23:13.375Z,16.80
2019-04-23T21:25:43.982Z,16.80
2019-04-23T21:33:33.802Z,16.50
2019-04-23T21:36:20.602Z,16.40
2019-04-23T21:44:18.138Z,16.40
2019-04-23T21:46:54.165Z,16.40
2019-04-23T21:49:25.130Z,16.40
2019-04-23T21:51:57.686Z,16.40
2019-04-23T21:54:21.163Z,16.40
2019-04-23T21:56:47.012Z,16.30
2019-04-23T21:59:23.235Z,16.20
2019-04-23T22:01:59.084Z,16.10
2019-04-23T22:04:44.531Z,16.10
2019-04-23T22:06:52.758Z,16.00
2019-04-23T22:09:36.008Z,15.90
2019-04-23T22:14:40.091Z,15.90
2019-04-23T22:19:42.217Z,15.80
2019-04-23T22:22:02.510Z,15.80
2019-04-23T22:24:48.598Z,15.80
2019-04-23T22:27:12.019Z,15.70
2019-04-23T22:29:45.046Z,15.70
2019-04-23T22:32:12.850Z,15.70
2019-04-23T22:34:57.129Z,15.70
2019-04-23T22:39:58.014Z,15.60
2019-04-23T22:42:44.379Z,15.60
2019-04-23T22:45:10.661Z,15.60
2019-04-23T22:47:25.077Z,15.70
2019-04-23T22:50:00.459Z,15.70
2019-04-23T22:52:48.293Z,15.70
2019-04-23T22:55:07.375Z,15.60
2019-04-23T22:57:56.026Z,15.60
2019-04-23T23:00:14.329Z,15.50
2019-04-23T23:05:53.028Z,15.40
2019-04-23T23:08:11.157Z,15.30
2019-04-23T23:10:44.623Z,15.40
2019-04-23T23:13:15.561Z,15.40
2019-04-23T23:15:50.244Z,15.30
2019-04-23T23:23:19.441Z,15.30
2019-04-23T23:25:49.172Z,15.40
2019-04-23T23:28:23.968Z,15.40
2019-04-23T23:33:24.564Z,15.40
2019-04-23T23:35:58.960Z,15.50
2019-04-23T23:38:33.274Z,15.50
2019-04-23T23:41:03.772Z,15.50
2019-04-23T23:46:20.834Z,15.40
2019-04-23T23:48:28.047Z,15.30
2019-04-23T23:51:09.856Z,15.20
2019-04-23T23:53:39.776Z,15.20
2019-04-23T23:58:58.606Z,15.00
